メインページ
METAR-TAF:

METAR-TAF

空港 :

ニューデリー, インド

インディラ・ガンディー国際空港

緯度: 28-34N, 経度: 077-07E, 海抜: 220m

現時点の気象観測

当レポートは37分前の23:00(UTC)に作成
北/北西の風 6kt
気温 23°C
湿度 94%
気圧 1007 hPa
視程: 2500m
高度1100ftの雲はほとんどない
高度3000ftの雲は散在している
高度10000ftの千切れ雲あり

METAR: VIDP 232300Z 33006KT 2500 BR FEW011 SCT030 BKN100 23/22 Q1007 NOSIG

時間: 05:07 (23:37 UTC)

予報

当レポートは6時間37分前の17:00(UTC)に作成
予報は23日の 18時(UTC)から 24日の 24時(UTC)まで有効
北西の風 5kt
視程: 3000m
高度3000ftの雲はほとんどない
高度10000ftの雲は散在している
23日の 21時(UTC)から 23日の 22時(UTC)まで徐々に
西/北西の風 3kt
視程: 2000m
24日の 00時(UTC)から 24日の 02時(UTC)まで徐々に
の風 kt
視程: 1500m
24日の 05時(UTC)から 24日の 07時(UTC)まで徐々に
北/北西の風 6kt
視程: 3000m
高度4000ftの雲はほとんどない
高度10000ftの雲は散在している
靄, 煙霧
24日の 09時(UTC)から 24日の 12時(UTC)まで一時的に
高度3500ftの雲はほとんどない, 積乱雲.
24日の 14時(UTC)から 24日の 16時(UTC)まで徐々に
西/北西の風 4kt
視程: 2500m
24日の 21時(UTC)から 24日の 22時(UTC)まで徐々に
の風 kt
視程: 1500m

TAF: VIDP 231700Z 2318/2424 32005KT 3000 BR FEW030 SCT100 BECMG 2321/2322 29003KT 2000 BR BECMG 2400/2402 00000KT 1500 BR BECMG 2405/2407 34006KT 3000 BR HZ FEW040 SCT100 TEMPO 2409/2412 FEW035CB BECMG 2414/2416 29004KT 2500 BR BECMG 2421/2422 00000KT 1500 BR

4,000以上の空港の気象観測と天気予報(METAR報とTAF報)

利用可能な観測所は地図上に黄色い丸と赤い丸で示す。

丸の上にカーソルを重ねると観測所名を参照できる。

次にクリックすると気象観測と天気予報を参照できる。

マップの切り替え:黒色「×」印の緑ボタンをクリックして拡大、「-」印の緑ボタンをクリックして縮小、緑色の三角印をクリックして隣りの地図に切り替え


METAR-TAF: